Time,TemperatureF,DewpointF,PressureIn,WindDirection,WindDirectionDegrees,WindSpeedMPH,WindSpeedGustMPH,Humidity,HourlyPrecipIn,Conditions,Clouds,dailyrainin,SoftwareType,DateUTC
2013-02-02 00:03:00,49.0,43.0,30.26,NNE,15,0.0,1.0,81,0.00,,,0.00,,2013-02-02 05:03:00,
2013-02-02 00:12:00,49.0,43.0,30.26,NNE,15,0.0,1.0,81,0.00,,,0.00,,2013-02-02 05:12:00,
2013-02-02 00:22:00,48.0,43.0,30.26,NNE,29,0.0,2.0,84,0.00,,,0.00,,2013-02-02 05:22:00,
2013-02-02 00:33:00,48.0,44.0,30.26,NNE,25,0.0,1.0,85,0.00,,,0.00,,2013-02-02 05:33:00,
2013-02-02 00:42:00,48.0,44.0,30.26,NNE,25,0.0,1.0,85,0.00,,,0.00,,2013-02-02 05:42:00,
2013-02-02 00:52:00,47.0,43.0,30.25,NNE,23,0.0,1.0,86,0.00,,,0.00,,2013-02-02 05:52:00,
2013-02-02 01:02:00,47.0,43.0,30.26,NNE,20,0.0,0.0,87,0.00,,,0.00,,2013-02-02 06:02:00,
2013-02-02 01:12:00,47.0,43.0,30.26,NNE,20,0.0,0.0,87,0.00,,,0.00,,2013-02-02 06:12:00,
2013-02-02 01:22:00,47.0,44.0,30.25,NNE,23,0.0,0.0,88,0.00,,,0.00,,2013-02-02 06:22:00,
2013-02-02 01:32:00,46.0,43.0,30.26,NNE,23,0.0,0.0,89,0.00,,,0.00,,2013-02-02 06:32:00,
2013-02-02 01:42:00,46.0,43.0,30.26,NNE,23,0.0,0.0,89,0.00,,,0.00,,2013-02-02 06:42:00,
2013-02-02 01:51:00,47.0,44.0,30.26,NNE,15,3.0,4.0,88,0.00,,,0.00,,2013-02-02 06:51:00,
2013-02-02 02:02:00,48.0,43.0,30.26,North,9,2.0,4.0,84,0.00,,,0.00,,2013-02-02 07:02:00,
2013-02-02 02:12:00,48.0,43.0,30.26,North,358,3.0,5.0,83,0.00,,,0.00,,2013-02-02 07:12:00,
2013-02-02 02:21:00,48.0,43.0,30.26,North,358,3.0,5.0,83,0.00,,,0.00,,2013-02-02 07:21:00,
2013-02-02 02:32:00,48.0,43.0,30.25,NNE,12,1.0,3.0,83,0.00,,,0.00,,2013-02-02 07:32:00,
2013-02-02 02:42:00,48.0,43.0,30.25,NNE,12,1.0,3.0,83,0.00,,,0.00,,2013-02-02 07:42:00,
2013-02-02 02:51:00,48.0,43.0,30.25,NNE,12,1.0,3.0,83,0.00,,,0.00,,2013-02-02 07:51:00,
2013-02-02 03:01:00,48.0,43.0,30.25,NNE,12,1.0,3.0,83,0.00,,,0.00,,2013-02-02 08:01:00,
2013-02-02 03:21:00,48.0,43.0,30.24,NE,40,1.0,4.0,82,0.00,,,0.00,,2013-02-02 08:21:00,
2013-02-02 03:32:00,47.0,42.0,30.24,North,8,2.0,4.0,82,0.00,,,0.00,,2013-02-02 08:32:00,
2013-02-02 03:42:00,47.0,42.0,30.24,North,8,2.0,4.0,82,0.00,,,0.00,,2013-02-02 08:42:00,
2013-02-02 03:52:00,47.0,42.0,30.24,North,358,1.0,4.0,83,0.00,,,0.00,,2013-02-02 08:52:00,
2013-02-02 04:01:00,47.0,42.0,30.24,North,355,2.0,5.0,83,0.00,,,0.00,,2013-02-02 09:01:00,
2013-02-02 04:11:00,47.0,42.0,30.24,North,355,2.0,5.0,83,0.00,,,0.00,,2013-02-02 09:11:00,
2013-02-02 04:22:00,47.0,42.0,30.24,NNE,26,2.0,5.0,82,0.00,,,0.00,,2013-02-02 09:22:00,
2013-02-02 04:32:00,46.0,41.0,30.25,North,11,2.0,4.0,83,0.00,,,0.00,,2013-02-02 09:32:00,
2013-02-02 04:42:00,46.0,41.0,30.25,North,11,2.0,4.0,83,0.00,,,0.00,,2013-02-02 09:42:00,
2013-02-02 04:52:00,46.0,41.0,30.25,NNE,33,2.0,4.0,83,0.00,,,0.00,,2013-02-02 09:52:00,
2013-02-02 05:02:00,46.0,41.0,30.25,NNE,20,1.0,3.0,83,0.00,,,0.00,,2013-02-02 10:02:00,
2013-02-02 05:11:00,46.0,41.0,30.25,NNE,20,1.0,3.0,83,0.00,,,0.00,,2013-02-02 10:11:00,
2013-02-02 05:21:00,46.0,41.0,30.24,NNE,16,1.0,4.0,84,0.00,,,0.00,,2013-02-02 10:21:00,
2013-02-02 05:32:00,45.0,40.0,30.24,North,10,0.0,3.0,84,0.00,,,0.00,,2013-02-02 10:32:00,
2013-02-02 05:42:00,45.0,40.0,30.24,North,10,0.0,3.0,84,0.00,,,0.00,,2013-02-02 10:42:00,
2013-02-02 05:52:00,45.0,41.0,30.24,North,9,1.0,4.0,85,0.00,,,0.00,,2013-02-02 10:52:00,
2013-02-02 06:02:00,45.0,41.0,30.24,NE,37,1.0,3.0,85,0.00,,,0.00,,2013-02-02 11:02:00,
2013-02-02 06:11:00,45.0,41.0,30.24,NE,37,1.0,3.0,85,0.00,,,0.00,,2013-02-02 11:11:00,
2013-02-02 06:22:00,45.0,41.0,30.25,NE,46,0.0,2.0,85,0.00,,,0.00,,2013-02-02 11:22:00,
2013-02-02 06:32:00,45.0,41.0,30.25,NNE,14,1.0,4.0,85,0.00,,,0.00,,2013-02-02 11:32:00,
2013-02-02 06:42:00,45.0,41.0,30.25,NNE,14,1.0,4.0,85,0.00,,,0.00,,2013-02-02 11:42:00,
2013-02-02 06:52:00,45.0,41.0,30.25,NNE,30,0.0,2.0,85,0.00,,,0.00,,2013-02-02 11:52:00,
2013-02-02 07:02:00,44.0,40.0,30.26,NE,37,0.0,2.0,86,0.00,,,0.00,,2013-02-02 12:02:00,
2013-02-02 07:11:00,44.0,40.0,30.26,NE,37,0.0,2.0,86,0.00,,,0.00,,2013-02-02 12:11:00,
2013-02-02 07:22:00,44.0,40.0,30.27,North,9,1.0,4.0,87,0.00,,,0.00,,2013-02-02 12:22:00,
2013-02-02 07:32:00,44.0,40.0,30.27,NNE,16,1.0,2.0,86,0.00,,,0.00,,2013-02-02 12:32:00,
2013-02-02 07:42:00,44.0,40.0,30.27,NNE,16,1.0,2.0,86,0.00,,,0.00,,2013-02-02 12:42:00,
2013-02-02 07:52:00,44.0,40.0,30.27,NE,41,0.0,3.0,86,0.00,,,0.00,,2013-02-02 12:52:00,
2013-02-02 08:03:00,44.0,40.0,30.27,NE,37,0.0,3.0,86,0.00,,,0.00,,2013-02-02 13:03:00,
2013-02-02 08:11:00,44.0,40.0,30.27,NE,37,0.0,3.0,86,0.00,,,0.00,,2013-02-02 13:11:00,
2013-02-02 08:22:00,45.0,41.0,30.27,NNE,30,1.0,3.0,85,0.00,,,0.00,,2013-02-02 13:22:00,
2013-02-02 08:33:00,47.0,41.0,30.27,NE,44,3.0,6.0,80,0.00,,,0.00,,2013-02-02 13:33:00,
2013-02-02 08:42:00,47.0,41.0,30.27,NE,44,3.0,6.0,80,0.00,,,0.00,,2013-02-02 13:42:00,
2013-02-02 08:52:00,48.0,41.0,30.27,NE,50,3.0,6.0,77,0.00,,,0.00,,2013-02-02 13:52:00,
2013-02-02 09:03:00,49.0,42.0,30.27,NE,43,2.0,5.0,76,0.00,,,0.00,,2013-02-02 14:03:00,
2013-02-02 09:12:00,49.0,42.0,30.27,NE,43,2.0,5.0,76,0.00,,,0.00,,2013-02-02 14:12:00,
2013-02-02 09:22:00,51.0,43.0,30.27,NE,51,2.0,4.0,73,0.00,,,0.00,,2013-02-02 14:22:00,
2013-02-02 09:33:00,53.0,43.0,30.27,NE,46,2.0,4.0,70,0.00,,,0.00,,2013-02-02 14:33:00,
2013-02-02 09:42:00,53.0,43.0,30.27,NE,46,2.0,4.0,70,0.00,,,0.00,,2013-02-02 14:42:00,
2013-02-02 09:52:00,55.0,44.0,30.27,NNE,25,3.0,6.0,66,0.00,,,0.00,,2013-02-02 14:52:00,
2013-02-02 10:03:00,57.0,43.0,30.27,NE,40,3.0,7.0,59,0.00,,,0.00,,2013-02-02 15:03:00,
2013-02-02 10:12:00,57.0,43.0,30.27,NE,40,3.0,7.0,59,0.00,,,0.00,,2013-02-02 15:12:00,
2013-02-02 10:22:00,60.0,44.0,30.27,NE,56,2.0,5.0,55,0.00,,,0.00,,2013-02-02 15:22:00,
2013-02-02 10:33:00,61.0,42.0,30.27,NE,37,3.0,8.0,50,0.00,,,0.00,,2013-02-02 15:33:00,
2013-02-02 10:42:00,61.0,42.0,30.27,NE,37,3.0,8.0,50,0.00,,,0.00,,2013-02-02 15:42:00,
2013-02-02 10:52:00,63.0,42.0,30.26,East,98,2.0,5.0,47,0.00,,,0.00,,2013-02-02 15:52:00,
2013-02-02 11:03:00,64.0,40.0,30.25,ENE,64,3.0,6.0,42,0.00,,,0.00,,2013-02-02 16:03:00,
2013-02-02 11:12:00,64.0,40.0,30.25,ENE,64,3.0,6.0,42,0.00,,,0.00,,2013-02-02 16:12:00,
2013-02-02 11:22:00,66.0,40.0,30.24,East,98,4.0,7.0,39,0.00,,,0.00,,2013-02-02 16:22:00,
2013-02-02 11:32:00,66.0,37.0,30.24,South,169,3.0,7.0,34,0.00,,,0.00,,2013-02-02 16:32:00,
2013-02-02 11:42:00,66.0,37.0,30.24,South,169,3.0,7.0,34,0.00,,,0.00,,2013-02-02 16:42:00,
2013-02-02 11:52:00,68.0,39.0,30.23,NE,50,2.0,4.0,34,0.00,,,0.00,,2013-02-02 16:52:00,
2013-02-02 12:03:00,68.0,37.0,30.23,NE,39,3.0,8.0,32,0.00,,,0.00,,2013-02-02 17:03:00,
2013-02-02 12:11:00,68.0,37.0,30.23,NE,39,3.0,8.0,32,0.00,,,0.00,,2013-02-02 17:11:00,
2013-02-02 12:22:00,69.0,38.0,30.22,ESE,122,0.0,6.0,32,0.00,,,0.00,,2013-02-02 17:22:00,
2013-02-02 12:32:00,69.0,38.0,30.22,ESE,122,0.0,6.0,32,0.00,,,0.00,,2013-02-02 17:32:00,
2013-02-02 12:42:00,69.0,38.0,30.22,ESE,122,0.0,6.0,32,0.00,,,0.00,,2013-02-02 17:42:00,
2013-02-02 12:52:00,71.0,40.0,30.20,ESE,105,1.0,6.0,32,0.00,,,0.00,,2013-02-02 17:52:00,
2013-02-02 13:03:00,71.0,42.0,30.19,NE,39,3.0,7.0,35,0.00,,,0.00,,2013-02-02 18:03:00,
2013-02-02 13:12:00,71.0,42.0,30.19,NE,39,3.0,7.0,35,0.00,,,0.00,,2013-02-02 18:12:00,
2013-02-02 13:22:00,73.0,44.0,30.18,ENE,68,1.0,5.0,36,0.00,,,0.00,,2013-02-02 18:22:00,
2013-02-02 13:32:00,73.0,44.0,30.17,East,90,3.0,7.0,36,0.00,,,0.00,,2013-02-02 18:32:00,
2013-02-02 13:42:00,73.0,44.0,30.17,East,90,3.0,7.0,36,0.00,,,0.00,,2013-02-02 18:42:00,
2013-02-02 13:52:00,73.0,45.0,30.16,West,262,1.0,7.0,37,0.00,,,0.00,,2013-02-02 18:52:00,
2013-02-02 14:02:00,74.0,45.0,30.16,East,82,1.0,7.0,36,0.00,,,0.00,,2013-02-02 19:02:00,
2013-02-02 14:12:00,74.0,45.0,30.16,East,82,1.0,7.0,36,0.00,,,0.00,,2013-02-02 19:12:00,
2013-02-02 14:22:00,75.0,46.0,30.14,SW,226,1.0,6.0,36,0.00,,,0.00,,2013-02-02 19:22:00,
2013-02-02 14:32:00,74.0,45.0,30.14,SSW,212,1.0,7.0,36,0.00,,,0.00,,2013-02-02 19:32:00,
2013-02-02 14:42:00,74.0,45.0,30.14,SSW,212,1.0,7.0,36,0.00,,,0.00,,2013-02-02 19:42:00,
2013-02-02 14:51:00,74.0,43.0,30.14,SW,228,3.0,6.0,33,0.00,,,0.00,,2013-02-02 19:51:00,
2013-02-02 15:02:00,74.0,42.0,30.14,SW,214,1.0,5.0,32,0.00,,,0.00,,2013-02-02 20:02:00,
2013-02-02 15:11:00,74.0,42.0,30.14,SW,214,1.0,5.0,32,0.00,,,0.00,,2013-02-02 20:11:00,
2013-02-02 15:22:00,74.0,44.0,30.13,SW,215,2.0,5.0,34,0.00,,,0.00,,2013-02-02 20:22:00,
2013-02-02 15:32:00,75.0,43.0,30.12,ENE,65,1.0,7.0,32,0.00,,,0.00,,2013-02-02 20:32:00,
2013-02-02 15:42:00,75.0,43.0,30.12,ENE,65,1.0,7.0,32,0.00,,,0.00,,2013-02-02 20:42:00,
2013-02-02 15:52:00,74.0,42.0,30.12,SSW,201,1.0,4.0,32,0.00,,,0.00,,2013-02-02 20:52:00,
2013-02-02 16:02:00,75.0,43.0,30.11,SSE,159,0.0,4.0,32,0.00,,,0.00,,2013-02-02 21:02:00,
2013-02-02 16:11:00,75.0,43.0,30.11,SSE,159,0.0,4.0,32,0.00,,,0.00,,2013-02-02 21:11:00,
2013-02-02 16:21:00,75.0,46.0,30.11,West,259,3.0,6.0,36,0.00,,,0.00,,2013-02-02 21:21:00,
2013-02-02 16:32:00,74.0,46.0,30.11,WSW,255,1.0,7.0,37,0.00,,,0.00,,2013-02-02 21:32:00,
2013-02-02 16:42:00,74.0,46.0,30.11,WSW,255,1.0,7.0,37,0.00,,,0.00,,2013-02-02 21:42:00,
2013-02-02 16:52:00,74.0,47.0,30.11,WSW,257,3.0,7.0,38,0.00,,,0.00,,2013-02-02 21:52:00,
2013-02-02 17:03:00,72.0,46.0,30.11,West,281,2.0,5.0,39,0.00,,,0.00,,2013-02-02 22:03:00,
2013-02-02 17:12:00,72.0,46.0,30.11,West,281,2.0,5.0,39,0.00,,,0.00,,2013-02-02 22:12:00,
2013-02-02 17:21:00,72.0,46.0,30.11,WNW,293,2.0,5.0,40,0.00,,,0.00,,2013-02-02 22:21:00,
2013-02-02 17:32:00,72.0,47.0,30.11,West,276,2.0,5.0,41,0.00,,,0.00,,2013-02-02 22:32:00,
2013-02-02 17:42:00,72.0,47.0,30.11,West,276,2.0,5.0,41,0.00,,,0.00,,2013-02-02 22:42:00,
2013-02-02 17:52:00,71.0,47.0,30.12,West,264,2.0,6.0,43,0.00,,,0.00,,2013-02-02 22:52:00,
2013-02-02 18:02:00,70.0,48.0,30.11,West,273,1.0,4.0,45,0.00,,,0.00,,2013-02-02 23:02:00,
2013-02-02 18:11:00,70.0,48.0,30.11,West,273,1.0,4.0,45,0.00,,,0.00,,2013-02-02 23:11:00,
2013-02-02 18:22:00,69.0,47.0,30.11,WNW,291,1.0,4.0,46,0.00,,,0.00,,2013-02-02 23:22:00,
2013-02-02 18:32:00,67.0,48.0,30.11,NW,311,1.0,3.0,50,0.00,,,0.00,,2013-02-02 23:32:00,
2013-02-02 18:42:00,67.0,48.0,30.11,NW,311,1.0,3.0,50,0.00,,,0.00,,2013-02-02 23:42:00,
2013-02-02 18:52:00,65.0,48.0,30.12,NW,326,0.0,2.0,54,0.00,,,0.00,,2013-02-02 23:52:00,
2013-02-02 19:02:00,63.0,47.0,30.12,NW,325,0.0,2.0,56,0.00,,,0.00,,2013-02-03 00:02:00,
2013-02-02 19:11:00,63.0,47.0,30.12,NW,325,0.0,2.0,56,0.00,,,0.00,,2013-02-03 00:11:00,
2013-02-02 19:22:00,62.0,48.0,30.12,NW,325,0.0,1.0,60,0.00,,,0.00,,2013-02-03 00:22:00,
2013-02-02 19:32:00,61.0,48.0,30.13,North,4,0.0,2.0,62,0.00,,,0.00,,2013-02-03 00:32:00,
2013-02-02 19:42:00,61.0,48.0,30.13,North,4,0.0,2.0,62,0.00,,,0.00,,2013-02-03 00:42:00,
2013-02-02 19:52:00,61.0,49.0,30.14,NNW,343,2.0,4.0,65,0.00,,,0.00,,2013-02-03 00:52:00,
2013-02-02 20:02:00,60.0,49.0,30.14,NW,326,1.0,3.0,68,0.00,,,0.00,,2013-02-03 01:02:00,
2013-02-02 20:11:00,59.0,49.0,30.14,WNW,303,1.0,2.0,70,0.00,,,0.00,,2013-02-03 01:11:00,
2013-02-02 20:21:00,59.0,49.0,30.14,WNW,303,1.0,2.0,70,0.00,,,0.00,,2013-02-03 01:21:00,
2013-02-02 20:32:00,59.0,50.0,30.14,NW,311,0.0,2.0,72,0.00,,,0.00,,2013-02-03 01:32:00,
2013-02-02 20:42:00,59.0,50.0,30.14,NW,311,0.0,2.0,72,0.00,,,0.00,,2013-02-03 01:42:00,
2013-02-02 20:52:00,58.0,49.0,30.14,NW,311,0.0,1.0,73,0.00,,,0.00,,2013-02-03 01:52:00,
2013-02-02 21:01:00,57.0,50.0,30.14,NW,309,0.0,1.0,77,0.00,,,0.00,,2013-02-03 02:01:00,
2013-02-02 21:11:00,57.0,50.0,30.14,NW,309,0.0,1.0,77,0.00,,,0.00,,2013-02-03 02:11:00,
2013-02-02 21:21:00,57.0,50.0,30.15,WNW,299,1.0,-999.0,78,-99.99,,,-99.99,,2013-02-03 02:21:00,
2013-02-02 21:32:00,57.0,50.0,30.15,NW,304,0.0,2.0,78,0.00,,,0.00,,2013-02-03 02:32:00,
2013-02-02 21:42:00,57.0,50.0,30.15,NW,304,0.0,2.0,78,0.00,,,0.00,,2013-02-03 02:42:00,
2013-02-02 21:52:00,57.0,51.0,30.15,North,356,1.0,3.0,79,0.00,,,0.00,,2013-02-03 02:52:00,
2013-02-02 22:02:00,56.0,50.0,30.14,NNW,333,0.0,1.0,79,0.00,,,0.00,,2013-02-03 03:02:00,
2013-02-02 22:11:00,56.0,50.0,30.14,NNE,15,0.0,2.0,79,0.00,,,0.00,,2013-02-03 03:11:00,
2013-02-02 22:22:00,56.0,50.0,30.14,NNE,15,0.0,2.0,79,0.00,,,0.00,,2013-02-03 03:22:00,
2013-02-02 22:32:00,56.0,50.0,30.14,NNE,27,1.0,3.0,80,0.00,,,0.00,,2013-02-03 03:32:00,
2013-02-02 22:42:00,56.0,50.0,30.14,NNE,27,1.0,3.0,80,0.00,,,0.00,,2013-02-03 03:42:00,
2013-02-02 22:51:00,55.0,49.0,30.14,NNE,28,1.0,3.0,79,0.00,,,0.00,,2013-02-03 03:51:00,
2013-02-02 23:01:00,55.0,48.0,30.14,NE,53,1.0,4.0,78,0.00,,,0.00,,2013-02-03 04:01:00,
2013-02-02 23:11:00,55.0,48.0,30.14,NE,53,1.0,4.0,78,0.00,,,0.00,,2013-02-03 04:11:00,
2013-02-02 23:21:00,55.0,49.0,30.14,NNE,32,1.0,3.0,79,0.00,,,0.00,,2013-02-03 04:21:00,
2013-02-02 23:32:00,54.0,48.0,30.14,NNE,12,1.0,2.0,80,0.00,,,0.00,,2013-02-03 04:32:00,
2013-02-02 23:42:00,54.0,48.0,30.14,NNE,12,1.0,2.0,80,0.00,,,0.00,,2013-02-03 04:42:00,
2013-02-02 23:52:00,54.0,48.0,30.14,North,10,1.0,2.0,81,0.00,,,0.00,,2013-02-03 04:52:00,